sensor_id;sensor_type;location;lat;lon;timestamp;P1;durP1;ratioP1;P2;durP2;ratioP2
22531;SDS011;11432;46.924;7.114;2023-05-07T00:00:33;3.33;;;2.00;;
22531;SDS011;11432;46.924;7.114;2023-05-07T00:02:59;5.78;;;2.38;;
22531;SDS011;11432;46.924;7.114;2023-05-07T00:05:25;4.63;;;2.33;;
22531;SDS011;11432;46.924;7.114;2023-05-07T00:07:51;4.10;;;1.80;;
22531;SDS011;11432;46.924;7.114;2023-05-07T00:10:17;5.72;;;2.00;;
22531;SDS011;11432;46.924;7.114;2023-05-07T00:12:43;4.07;;;1.60;;
22531;SDS011;11432;46.924;7.114;2023-05-07T00:15:09;3.58;;;2.00;;
22531;SDS011;11432;46.924;7.114;2023-05-07T00:17:36;3.83;;;2.28;;
22531;SDS011;11432;46.924;7.114;2023-05-07T00:20:02;5.43;;;2.33;;
22531;SDS011;11432;46.924;7.114;2023-05-07T00:22:29;2.55;;;1.85;;
22531;SDS011;11432;46.924;7.114;2023-05-07T00:24:56;3.10;;;2.08;;
22531;SDS011;11432;46.924;7.114;2023-05-07T00:27:21;2.67;;;1.90;;
22531;SDS011;11432;46.924;7.114;2023-05-07T00:29:47;4.57;;;2.13;;
22531;SDS011;11432;46.924;7.114;2023-05-07T00:32:13;5.53;;;2.17;;
22531;SDS011;11432;46.924;7.114;2023-05-07T00:34:39;6.18;;;2.30;;
22531;SDS011;11432;46.924;7.114;2023-05-07T00:37:04;6.30;;;1.90;;
22531;SDS011;11432;46.924;7.114;2023-05-07T00:39:32;3.15;;;1.92;;
22531;SDS011;11432;46.924;7.114;2023-05-07T00:41:58;3.00;;;2.20;;
22531;SDS011;11432;46.924;7.114;2023-05-07T00:44:25;3.97;;;2.30;;
22531;SDS011;11432;46.924;7.114;2023-05-07T00:46:51;4.13;;;2.20;;
22531;SDS011;11432;46.924;7.114;2023-05-07T00:49:18;3.40;;;2.28;;
22531;SDS011;11432;46.924;7.114;2023-05-07T00:51:44;4.55;;;2.30;;
22531;SDS011;11432;46.924;7.114;2023-05-07T00:54:10;3.22;;;2.05;;
22531;SDS011;11432;46.924;7.114;2023-05-07T00:56:37;2.35;;;1.85;;
22531;SDS011;11432;46.924;7.114;2023-05-07T00:59:04;4.10;;;2.10;;
22531;SDS011;11432;46.924;7.114;2023-05-07T01:01:31;3.15;;;2.03;;
22531;SDS011;11432;46.924;7.114;2023-05-07T01:03:57;4.68;;;2.22;;
22531;SDS011;11432;46.924;7.114;2023-05-07T01:06:23;2.55;;;2.10;;
22531;SDS011;11432;46.924;7.114;2023-05-07T01:08:50;4.10;;;2.10;;
22531;SDS011;11432;46.924;7.114;2023-05-07T01:11:17;5.72;;;2.58;;
22531;SDS011;11432;46.924;7.114;2023-05-07T01:13:45;6.75;;;2.40;;
22531;SDS011;11432;46.924;7.114;2023-05-07T01:16:12;4.95;;;2.42;;
22531;SDS011;11432;46.924;7.114;2023-05-07T01:18:38;3.92;;;2.33;;
22531;SDS011;11432;46.924;7.114;2023-05-07T01:21:03;4.82;;;2.35;;
22531;SDS011;11432;46.924;7.114;2023-05-07T01:23:30;4.85;;;2.22;;
22531;SDS011;11432;46.924;7.114;2023-05-07T01:25:56;3.25;;;2.30;;
22531;SDS011;11432;46.924;7.114;2023-05-07T01:28:22;3.78;;;2.20;;
22531;SDS011;11432;46.924;7.114;2023-05-07T01:30:52;3.00;;;2.20;;
22531;SDS011;11432;46.924;7.114;2023-05-07T01:33:21;3.72;;;2.05;;
22531;SDS011;11432;46.924;7.114;2023-05-07T01:35:47;3.90;;;2.40;;
22531;SDS011;11432;46.924;7.114;2023-05-07T01:38:15;3.53;;;2.60;;
22531;SDS011;11432;46.924;7.114;2023-05-07T01:40:42;3.42;;;2.20;;
22531;SDS011;11432;46.924;7.114;2023-05-07T01:43:08;3.05;;;2.10;;
22531;SDS011;11432;46.924;7.114;2023-05-07T01:45:35;3.47;;;2.13;;
22531;SDS011;11432;46.924;7.114;2023-05-07T01:48:01;4.75;;;3.03;;
22531;SDS011;11432;46.924;7.114;2023-05-07T01:50:28;6.05;;;2.10;;
22531;SDS011;11432;46.924;7.114;2023-05-07T01:52:55;4.00;;;2.55;;
22531;SDS011;11432;46.924;7.114;2023-05-07T01:55:21;4.30;;;2.42;;
22531;SDS011;11432;46.924;7.114;2023-05-07T01:57:47;8.38;;;2.47;;
22531;SDS011;11432;46.924;7.114;2023-05-07T02:00:12;5.25;;;2.38;;
22531;SDS011;11432;46.924;7.114;2023-05-07T02:02:38;6.68;;;2.78;;
22531;SDS011;11432;46.924;7.114;2023-05-07T02:05:04;5.00;;;2.80;;
22531;SDS011;11432;46.924;7.114;2023-05-07T02:07:30;4.63;;;2.47;;
22531;SDS011;11432;46.924;7.114;2023-05-07T02:09:56;4.85;;;2.33;;
22531;SDS011;11432;46.924;7.114;2023-05-07T02:12:22;3.75;;;2.53;;
22531;SDS011;11432;46.924;7.114;2023-05-07T02:14:47;6.60;;;2.30;;
22531;SDS011;11432;46.924;7.114;2023-05-07T02:17:13;4.05;;;2.47;;
22531;SDS011;11432;46.924;7.114;2023-05-07T02:19:39;6.10;;;2.33;;
22531;SDS011;11432;46.924;7.114;2023-05-07T02:22:04;3.47;;;2.70;;
22531;SDS011;11432;46.924;7.114;2023-05-07T02:24:30;5.70;;;2.50;;
22531;SDS011;11432;46.924;7.114;2023-05-07T02:26:55;5.22;;;2.47;;
22531;SDS011;11432;46.924;7.114;2023-05-07T02:29:21;5.32;;;2.72;;
22531;SDS011;11432;46.924;7.114;2023-05-07T02:31:47;5.53;;;2.70;;
22531;SDS011;11432;46.924;7.114;2023-05-07T02:34:15;5.32;;;2.35;;
22531;SDS011;11432;46.924;7.114;2023-05-07T02:36:44;7.25;;;3.00;;
22531;SDS011;11432;46.924;7.114;2023-05-07T02:39:11;4.43;;;2.78;;
22531;SDS011;11432;46.924;7.114;2023-05-07T02:41:37;7.35;;;3.20;;
22531;SDS011;11432;46.924;7.114;2023-05-07T02:44:03;11.98;;;3.30;;
22531;SDS011;11432;46.924;7.114;2023-05-07T02:46:29;5.20;;;2.83;;
22531;SDS011;11432;46.924;7.114;2023-05-07T02:48:55;6.85;;;3.35;;
22531;SDS011;11432;46.924;7.114;2023-05-07T02:51:21;4.85;;;2.97;;
22531;SDS011;11432;46.924;7.114;2023-05-07T02:53:47;5.05;;;3.10;;
22531;SDS011;11432;46.924;7.114;2023-05-07T02:56:13;4.93;;;3.10;;
22531;SDS011;11432;46.924;7.114;2023-05-07T02:58:39;4.43;;;3.28;;
22531;SDS011;11432;46.924;7.114;2023-05-07T03:01:08;7.97;;;3.50;;
22531;SDS011;11432;46.924;7.114;2023-05-07T03:03:34;5.30;;;3.28;;
22531;SDS011;11432;46.924;7.114;2023-05-07T03:06:00;6.65;;;3.60;;
22531;SDS011;11432;46.924;7.114;2023-05-07T03:08:26;7.25;;;3.10;;
22531;SDS011;11432;46.924;7.114;2023-05-07T03:10:52;5.38;;;2.85;;
22531;SDS011;11432;46.924;7.114;2023-05-07T03:13:17;5.43;;;3.20;;
22531;SDS011;11432;46.924;7.114;2023-05-07T03:15:43;6.57;;;3.97;;
22531;SDS011;11432;46.924;7.114;2023-05-07T03:18:08;6.20;;;3.35;;
22531;SDS011;11432;46.924;7.114;2023-05-07T03:20:34;4.57;;;3.20;;
22531;SDS011;11432;46.924;7.114;2023-05-07T03:23:01;5.38;;;3.28;;
22531;SDS011;11432;46.924;7.114;2023-05-07T03:25:27;4.75;;;3.08;;
22531;SDS011;11432;46.924;7.114;2023-05-07T03:27:53;5.93;;;3.30;;
22531;SDS011;11432;46.924;7.114;2023-05-07T03:30:18;6.22;;;3.42;;
22531;SDS011;11432;46.924;7.114;2023-05-07T03:32:45;5.60;;;3.05;;
22531;SDS011;11432;46.924;7.114;2023-05-07T03:35:10;4.18;;;3.03;;
22531;SDS011;11432;46.924;7.114;2023-05-07T03:37:37;7.32;;;3.40;;
22531;SDS011;11432;46.924;7.114;2023-05-07T03:40:03;4.15;;;3.20;;
22531;SDS011;11432;46.924;7.114;2023-05-07T03:42:30;6.75;;;3.20;;
22531;SDS011;11432;46.924;7.114;2023-05-07T03:44:55;7.10;;;3.25;;
22531;SDS011;11432;46.924;7.114;2023-05-07T03:47:21;8.60;;;3.50;;
22531;SDS011;11432;46.924;7.114;2023-05-07T03:49:47;5.07;;;3.20;;
22531;SDS011;11432;46.924;7.114;2023-05-07T03:52:13;5.97;;;3.45;;
22531;SDS011;11432;46.924;7.114;2023-05-07T03:54:39;4.90;;;3.30;;
22531;SDS011;11432;46.924;7.114;2023-05-07T03:57:05;8.45;;;3.50;;
22531;SDS011;11432;46.924;7.114;2023-05-07T03:59:31;4.38;;;3.13;;
22531;SDS011;11432;46.924;7.114;2023-05-07T04:01:56;6.75;;;4.00;;
22531;SDS011;11432;46.924;7.114;2023-05-07T04:04:22;6.45;;;3.72;;
22531;SDS011;11432;46.924;7.114;2023-05-07T04:06:47;8.77;;;3.67;;
22531;SDS011;11432;46.924;7.114;2023-05-07T04:09:13;4.05;;;3.25;;
22531;SDS011;11432;46.924;7.114;2023-05-07T04:11:39;4.60;;;3.38;;
22531;SDS011;11432;46.924;7.114;2023-05-07T04:14:07;5.80;;;3.67;;
22531;SDS011;11432;46.924;7.114;2023-05-07T04:16:34;7.95;;;3.80;;
22531;SDS011;11432;46.924;7.114;2023-05-07T04:19:00;4.85;;;3.13;;
22531;SDS011;11432;46.924;7.114;2023-05-07T04:21:25;6.78;;;3.58;;
22531;SDS011;11432;46.924;7.114;2023-05-07T04:23:51;8.13;;;3.80;;
22531;SDS011;11432;46.924;7.114;2023-05-07T04:26:17;4.97;;;3.60;;
22531;SDS011;11432;46.924;7.114;2023-05-07T04:28:42;7.78;;;3.53;;
22531;SDS011;11432;46.924;7.114;2023-05-07T04:31:08;8.02;;;3.60;;
22531;SDS011;11432;46.924;7.114;2023-05-07T04:33:34;5.63;;;3.90;;
22531;SDS011;11432;46.924;7.114;2023-05-07T04:36:03;7.90;;;3.90;;
22531;SDS011;11432;46.924;7.114;2023-05-07T04:38:29;4.70;;;3.33;;
22531;SDS011;11432;46.924;7.114;2023-05-07T04:40:56;5.22;;;3.42;;
22531;SDS011;11432;46.924;7.114;2023-05-07T04:43:22;4.75;;;3.53;;
22531;SDS011;11432;46.924;7.114;2023-05-07T04:45:49;7.78;;;3.60;;
22531;SDS011;11432;46.924;7.114;2023-05-07T04:48:15;5.55;;;3.70;;
22531;SDS011;11432;46.924;7.114;2023-05-07T04:50:44;7.45;;;3.60;;
22531;SDS011;11432;46.924;7.114;2023-05-07T04:53:12;7.80;;;4.00;;
22531;SDS011;11432;46.924;7.114;2023-05-07T04:55:37;4.68;;;3.63;;
22531;SDS011;11432;46.924;7.114;2023-05-07T04:58:03;7.50;;;4.00;;
22531;SDS011;11432;46.924;7.114;2023-05-07T05:00:29;4.60;;;3.53;;
22531;SDS011;11432;46.924;7.114;2023-05-07T05:02:55;4.55;;;3.35;;
22531;SDS011;11432;46.924;7.114;2023-05-07T05:05:21;6.22;;;3.78;;
22531;SDS011;11432;46.924;7.114;2023-05-07T05:07:46;6.00;;;3.70;;
22531;SDS011;11432;46.924;7.114;2023-05-07T05:10:12;7.18;;;3.30;;
22531;SDS011;11432;46.924;7.114;2023-05-07T05:12:38;4.78;;;3.40;;
22531;SDS011;11432;46.924;7.114;2023-05-07T05:15:04;7.97;;;3.85;;
22531;SDS011;11432;46.924;7.114;2023-05-07T05:17:30;5.28;;;3.60;;
22531;SDS011;11432;46.924;7.114;2023-05-07T05:19:56;6.03;;;3.28;;
22531;SDS011;11432;46.924;7.114;2023-05-07T05:22:21;8.25;;;3.88;;
22531;SDS011;11432;46.924;7.114;2023-05-07T05:24:47;4.50;;;3.60;;
22531;SDS011;11432;46.924;7.114;2023-05-07T05:27:12;8.63;;;3.30;;
22531;SDS011;11432;46.924;7.114;2023-05-07T05:29:38;7.30;;;3.80;;
22531;SDS011;11432;46.924;7.114;2023-05-07T05:32:04;6.32;;;3.65;;
22531;SDS011;11432;46.924;7.114;2023-05-07T05:34:29;5.45;;;3.80;;
22531;SDS011;11432;46.924;7.114;2023-05-07T05:36:55;5.65;;;4.03;;
22531;SDS011;11432;46.924;7.114;2023-05-07T05:39:21;4.75;;;3.38;;
22531;SDS011;11432;46.924;7.114;2023-05-07T05:41:48;5.93;;;3.53;;
22531;SDS011;11432;46.924;7.114;2023-05-07T05:44:13;5.68;;;3.30;;
22531;SDS011;11432;46.924;7.114;2023-05-07T05:46:39;6.05;;;3.45;;
22531;SDS011;11432;46.924;7.114;2023-05-07T05:49:05;6.13;;;3.58;;
22531;SDS011;11432;46.924;7.114;2023-05-07T05:51:30;4.95;;;3.17;;
22531;SDS011;11432;46.924;7.114;2023-05-07T05:53:56;4.32;;;3.42;;
22531;SDS011;11432;46.924;7.114;2023-05-07T05:56:22;5.20;;;3.17;;
22531;SDS011;11432;46.924;7.114;2023-05-07T05:58:47;6.47;;;3.70;;
22531;SDS011;11432;46.924;7.114;2023-05-07T06:01:14;4.47;;;3.20;;
22531;SDS011;11432;46.924;7.114;2023-05-07T06:03:40;5.10;;;3.35;;
22531;SDS011;11432;46.924;7.114;2023-05-07T06:06:05;5.15;;;3.25;;
22531;SDS011;11432;46.924;7.114;2023-05-07T06:08:31;4.55;;;3.42;;
22531;SDS011;11432;46.924;7.114;2023-05-07T06:10:56;7.40;;;3.20;;
22531;SDS011;11432;46.924;7.114;2023-05-07T06:13:23;4.50;;;3.22;;
22531;SDS011;11432;46.924;7.114;2023-05-07T06:15:48;5.53;;;3.53;;
22531;SDS011;11432;46.924;7.114;2023-05-07T06:18:14;5.50;;;3.17;;
22531;SDS011;11432;46.924;7.114;2023-05-07T06:20:40;3.70;;;2.88;;
22531;SDS011;11432;46.924;7.114;2023-05-07T06:23:05;5.35;;;3.75;;
22531;SDS011;11432;46.924;7.114;2023-05-07T06:25:31;7.57;;;3.65;;
22531;SDS011;11432;46.924;7.114;2023-05-07T06:27:57;6.20;;;3.35;;
22531;SDS011;11432;46.924;7.114;2023-05-07T06:30:22;7.47;;;3.13;;
22531;SDS011;11432;46.924;7.114;2023-05-07T06:32:48;5.38;;;3.25;;
22531;SDS011;11432;46.924;7.114;2023-05-07T06:35:13;4.82;;;3.35;;
22531;SDS011;11432;46.924;7.114;2023-05-07T06:37:40;4.63;;;3.15;;
22531;SDS011;11432;46.924;7.114;2023-05-07T06:40:07;4.43;;;3.03;;
22531;SDS011;11432;46.924;7.114;2023-05-07T06:42:35;8.25;;;3.88;;
22531;SDS011;11432;46.924;7.114;2023-05-07T06:45:01;6.68;;;3.78;;
22531;SDS011;11432;46.924;7.114;2023-05-07T06:47:27;5.47;;;3.40;;
22531;SDS011;11432;46.924;7.114;2023-05-07T06:49:53;5.18;;;3.78;;
22531;SDS011;11432;46.924;7.114;2023-05-07T06:52:19;7.03;;;3.40;;
22531;SDS011;11432;46.924;7.114;2023-05-07T06:54:44;5.22;;;3.45;;
22531;SDS011;11432;46.924;7.114;2023-05-07T06:57:10;4.97;;;3.38;;
22531;SDS011;11432;46.924;7.114;2023-05-07T06:59:36;7.60;;;3.28;;
22531;SDS011;11432;46.924;7.114;2023-05-07T07:02:01;5.75;;;3.45;;
22531;SDS011;11432;46.924;7.114;2023-05-07T07:04:27;4.85;;;3.45;;
22531;SDS011;11432;46.924;7.114;2023-05-07T07:06:53;8.35;;;3.15;;
22531;SDS011;11432;46.924;7.114;2023-05-07T07:09:19;6.15;;;3.53;;
22531;SDS011;11432;46.924;7.114;2023-05-07T07:11:44;4.75;;;3.40;;
22531;SDS011;11432;46.924;7.114;2023-05-07T07:14:10;5.03;;;3.30;;
22531;SDS011;11432;46.924;7.114;2023-05-07T07:16:36;6.70;;;3.60;;
22531;SDS011;11432;46.924;7.114;2023-05-07T07:19:01;5.18;;;3.30;;
22531;SDS011;11432;46.924;7.114;2023-05-07T07:21:27;4.90;;;3.35;;
22531;SDS011;11432;46.924;7.114;2023-05-07T07:23:52;5.25;;;3.50;;
22531;SDS011;11432;46.924;7.114;2023-05-07T07:26:18;7.70;;;3.38;;
22531;SDS011;11432;46.924;7.114;2023-05-07T07:28:44;5.30;;;3.33;;
22531;SDS011;11432;46.924;7.114;2023-05-07T07:31:10;4.65;;;3.22;;
22531;SDS011;11432;46.924;7.114;2023-05-07T07:33:36;5.93;;;3.67;;
22531;SDS011;11432;46.924;7.114;2023-05-07T07:36:02;7.28;;;3.97;;
22531;SDS011;11432;46.924;7.114;2023-05-07T07:38:28;6.07;;;3.67;;
22531;SDS011;11432;46.924;7.114;2023-05-07T07:40:53;4.82;;;3.70;;
22531;SDS011;11432;46.924;7.114;2023-05-07T07:43:19;5.55;;;3.28;;
22531;SDS011;11432;46.924;7.114;2023-05-07T07:45:45;5.93;;;3.33;;
22531;SDS011;11432;46.924;7.114;2023-05-07T07:48:11;6.60;;;3.35;;
22531;SDS011;11432;46.924;7.114;2023-05-07T07:50:36;4.78;;;3.30;;
22531;SDS011;11432;46.924;7.114;2023-05-07T07:53:02;5.07;;;3.70;;
22531;SDS011;11432;46.924;7.114;2023-05-07T07:55:28;8.63;;;3.83;;
22531;SDS011;11432;46.924;7.114;2023-05-07T07:57:54;6.43;;;3.85;;
22531;SDS011;11432;46.924;7.114;2023-05-07T08:00:19;5.30;;;3.45;;
22531;SDS011;11432;46.924;7.114;2023-05-07T08:02:45;8.90;;;3.47;;
22531;SDS011;11432;46.924;7.114;2023-05-07T08:05:11;5.53;;;3.47;;
22531;SDS011;11432;46.924;7.114;2023-05-07T08:07:37;7.30;;;4.35;;
22531;SDS011;11432;46.924;7.114;2023-05-07T08:10:02;4.68;;;3.15;;
22531;SDS011;11432;46.924;7.114;2023-05-07T08:12:29;4.97;;;3.10;;
22531;SDS011;11432;46.924;7.114;2023-05-07T08:14:54;3.90;;;2.65;;
22531;SDS011;11432;46.924;7.114;2023-05-07T08:17:20;5.85;;;2.80;;
22531;SDS011;11432;46.924;7.114;2023-05-07T08:19:47;3.80;;;2.70;;
22531;SDS011;11432;46.924;7.114;2023-05-07T08:22:13;8.07;;;3.10;;
22531;SDS011;11432;46.924;7.114;2023-05-07T08:24:39;6.63;;;3.20;;
22531;SDS011;11432;46.924;7.114;2023-05-07T08:27:05;5.53;;;3.08;;
22531;SDS011;11432;46.924;7.114;2023-05-07T08:29:30;5.38;;;2.95;;
22531;SDS011;11432;46.924;7.114;2023-05-07T08:31:56;5.75;;;3.25;;
22531;SDS011;11432;46.924;7.114;2023-05-07T08:34:21;4.47;;;2.88;;
22531;SDS011;11432;46.924;7.114;2023-05-07T08:36:47;5.13;;;3.10;;
22531;SDS011;11432;46.924;7.114;2023-05-07T08:39:13;4.72;;;2.65;;
22531;SDS011;11432;46.924;7.114;2023-05-07T08:41:45;6.68;;;3.00;;
22531;SDS011;11432;46.924;7.114;2023-05-07T08:44:13;4.97;;;2.70;;
22531;SDS011;11432;46.924;7.114;2023-05-07T08:46:39;4.13;;;2.53;;
22531;SDS011;11432;46.924;7.114;2023-05-07T08:49:06;4.38;;;2.65;;
22531;SDS011;11432;46.924;7.114;2023-05-07T08:51:32;5.07;;;3.13;;
22531;SDS011;11432;46.924;7.114;2023-05-07T08:53:58;4.43;;;2.65;;
22531;SDS011;11432;46.924;7.114;2023-05-07T08:56:26;6.80;;;3.00;;
22531;SDS011;11432;46.924;7.114;2023-05-07T08:58:52;5.82;;;3.15;;
22531;SDS011;11432;46.924;7.114;2023-05-07T09:01:21;3.95;;;2.72;;
22531;SDS011;11432;46.924;7.114;2023-05-07T09:03:47;3.67;;;2.80;;
22531;SDS011;11432;46.924;7.114;2023-05-07T09:06:13;5.90;;;3.03;;
22531;SDS011;11432;46.924;7.114;2023-05-07T09:08:39;4.00;;;2.60;;
22531;SDS011;11432;46.924;7.114;2023-05-07T09:11:04;4.97;;;2.70;;
22531;SDS011;11432;46.924;7.114;2023-05-07T09:13:30;3.85;;;2.80;;
22531;SDS011;11432;46.924;7.114;2023-05-07T09:15:56;3.72;;;3.03;;
22531;SDS011;11432;46.924;7.114;2023-05-07T09:18:25;5.70;;;2.67;;
22531;SDS011;11432;46.924;7.114;2023-05-07T09:20:51;4.55;;;3.00;;
22531;SDS011;11432;46.924;7.114;2023-05-07T09:23:16;4.53;;;2.70;;
22531;SDS011;11432;46.924;7.114;2023-05-07T09:25:42;3.72;;;2.90;;
22531;SDS011;11432;46.924;7.114;2023-05-07T09:28:07;6.22;;;3.10;;
22531;SDS011;11432;46.924;7.114;2023-05-07T09:30:35;7.80;;;2.90;;
22531;SDS011;11432;46.924;7.114;2023-05-07T09:33:02;5.13;;;3.28;;
22531;SDS011;11432;46.924;7.114;2023-05-07T09:35:29;4.82;;;2.95;;
22531;SDS011;11432;46.924;7.114;2023-05-07T09:37:55;4.40;;;2.70;;
22531;SDS011;11432;46.924;7.114;2023-05-07T09:40:23;6.18;;;3.17;;
22531;SDS011;11432;46.924;7.114;2023-05-07T09:42:50;6.30;;;3.45;;
22531;SDS011;11432;46.924;7.114;2023-05-07T09:45:16;4.80;;;3.50;;
22531;SDS011;11432;46.924;7.114;2023-05-07T09:47:50;7.20;;;3.22;;
22531;SDS011;11432;46.924;7.114;2023-05-07T09:50:19;8.15;;;3.83;;
22531;SDS011;11432;46.924;7.114;2023-05-07T09:52:50;8.40;;;3.10;;
22531;SDS011;11432;46.924;7.114;2023-05-07T09:55:16;4.40;;;3.20;;
22531;SDS011;11432;46.924;7.114;2023-05-07T09:57:43;4.35;;;3.22;;
22531;SDS011;11432;46.924;7.114;2023-05-07T10:00:10;5.50;;;2.78;;
22531;SDS011;11432;46.924;7.114;2023-05-07T10:02:36;3.25;;;2.22;;
22531;SDS011;11432;46.924;7.114;2023-05-07T10:05:11;4.53;;;3.13;;
22531;SDS011;11432;46.924;7.114;2023-05-07T10:07:37;7.07;;;2.90;;
22531;SDS011;11432;46.924;7.114;2023-05-07T10:10:03;3.92;;;2.55;;
22531;SDS011;11432;46.924;7.114;2023-05-07T10:12:30;5.93;;;2.72;;
22531;SDS011;11432;46.924;7.114;2023-05-07T10:15:02;3.63;;;2.40;;
22531;SDS011;11432;46.924;7.114;2023-05-07T10:17:29;3.78;;;2.53;;
22531;SDS011;11432;46.924;7.114;2023-05-07T10:19:55;8.23;;;3.55;;
22531;SDS011;11432;46.924;7.114;2023-05-07T10:22:20;6.05;;;3.20;;
22531;SDS011;11432;46.924;7.114;2023-05-07T10:24:47;4.97;;;3.30;;
22531;SDS011;11432;46.924;7.114;2023-05-07T10:29:49;5.40;;;3.67;;
22531;SDS011;11432;46.924;7.114;2023-05-07T10:32:35;4.97;;;3.03;;
22531;SDS011;11432;46.924;7.114;2023-05-07T10:35:06;6.18;;;3.10;;
22531;SDS011;11432;46.924;7.114;2023-05-07T10:37:35;5.70;;;3.00;;
22531;SDS011;11432;46.924;7.114;2023-05-07T10:40:02;5.25;;;2.78;;
22531;SDS011;11432;46.924;7.114;2023-05-07T10:42:28;4.85;;;3.20;;
22531;SDS011;11432;46.924;7.114;2023-05-07T10:44:53;5.75;;;3.10;;
22531;SDS011;11432;46.924;7.114;2023-05-07T10:47:19;10.20;;;2.75;;
22531;SDS011;11432;46.924;7.114;2023-05-07T10:52:11;5.78;;;2.65;;
22531;SDS011;11432;46.924;7.114;2023-05-07T10:54:44;5.55;;;2.78;;
22531;SDS011;11432;46.924;7.114;2023-05-07T10:59:58;11.77;;;2.72;;
22531;SDS011;11432;46.924;7.114;2023-05-07T11:02:23;6.15;;;3.13;;
22531;SDS011;11432;46.924;7.114;2023-05-07T11:05:24;5.57;;;3.08;;
22531;SDS011;11432;46.924;7.114;2023-05-07T11:07:57;5.47;;;3.08;;
22531;SDS011;11432;46.924;7.114;2023-05-07T11:10:47;4.90;;;3.20;;
22531;SDS011;11432;46.924;7.114;2023-05-07T11:15:40;6.93;;;3.00;;
22531;SDS011;11432;46.924;7.114;2023-05-07T11:18:08;4.63;;;3.00;;
22531;SDS011;11432;46.924;7.114;2023-05-07T11:20:45;6.38;;;2.95;;
22531;SDS011;11432;46.924;7.114;2023-05-07T11:25:59;5.00;;;2.50;;
22531;SDS011;11432;46.924;7.114;2023-05-07T11:28:27;7.68;;;2.97;;
22531;SDS011;11432;46.924;7.114;2023-05-07T11:30:54;4.03;;;2.60;;
22531;SDS011;11432;46.924;7.114;2023-05-07T11:33:21;4.10;;;2.90;;
22531;SDS011;11432;46.924;7.114;2023-05-07T11:35:47;4.80;;;2.80;;
22531;SDS011;11432;46.924;7.114;2023-05-07T11:38:13;4.30;;;3.00;;
22531;SDS011;11432;46.924;7.114;2023-05-07T11:40:56;4.75;;;3.20;;
22531;SDS011;11432;46.924;7.114;2023-05-07T11:43:25;4.07;;;2.60;;
22531;SDS011;11432;46.924;7.114;2023-05-07T11:45:51;4.07;;;2.55;;
22531;SDS011;11432;46.924;7.114;2023-05-07T11:48:17;5.93;;;2.83;;
22531;SDS011;11432;46.924;7.114;2023-05-07T11:53:43;4.72;;;2.70;;
22531;SDS011;11432;46.924;7.114;2023-05-07T11:56:09;6.60;;;2.60;;
22531;SDS011;11432;46.924;7.114;2023-05-07T11:58:37;4.95;;;3.30;;
22531;SDS011;11432;46.924;7.114;2023-05-07T12:01:03;5.63;;;2.80;;
22531;SDS011;11432;46.924;7.114;2023-05-07T12:03:29;4.32;;;2.63;;
22531;SDS011;11432;46.924;7.114;2023-05-07T12:05:55;3.92;;;2.60;;
22531;SDS011;11432;46.924;7.114;2023-05-07T12:08:21;4.95;;;2.80;;
22531;SDS011;11432;46.924;7.114;2023-05-07T12:10:48;7.72;;;3.15;;
22531;SDS011;11432;46.924;7.114;2023-05-07T12:15:42;3.33;;;2.50;;
22531;SDS011;11432;46.924;7.114;2023-05-07T12:18:08;4.75;;;3.15;;
22531;SDS011;11432;46.924;7.114;2023-05-07T12:20:34;4.63;;;2.50;;
22531;SDS011;11432;46.924;7.114;2023-05-07T12:23:01;6.45;;;3.03;;
22531;SDS011;11432;46.924;7.114;2023-05-07T12:25:37;3.67;;;2.35;;
22531;SDS011;11432;46.924;7.114;2023-05-07T12:28:05;3.38;;;2.63;;
22531;SDS011;11432;46.924;7.114;2023-05-07T12:30:36;2.72;;;1.63;;
22531;SDS011;11432;46.924;7.114;2023-05-07T12:33:02;2.28;;;1.25;;
22531;SDS011;11432;46.924;7.114;2023-05-07T12:35:28;2.03;;;1.10;;
22531;SDS011;11432;46.924;7.114;2023-05-07T12:38:00;3.08;;;1.40;;
22531;SDS011;11432;46.924;7.114;2023-05-07T12:40:38;1.52;;;1.10;;
22531;SDS011;11432;46.924;7.114;2023-05-07T12:43:04;2.30;;;1.60;;
22531;SDS011;11432;46.924;7.114;2023-05-07T12:45:30;2.47;;;1.27;;
22531;SDS011;11432;46.924;7.114;2023-05-07T12:47:56;1.42;;;1.00;;
22531;SDS011;11432;46.924;7.114;2023-05-07T12:50:26;1.80;;;1.08;;
22531;SDS011;11432;46.924;7.114;2023-05-07T12:52:55;2.40;;;1.00;;
22531;SDS011;11432;46.924;7.114;2023-05-07T12:55:21;2.67;;;1.23;;
22531;SDS011;11432;46.924;7.114;2023-05-07T12:57:48;2.58;;;1.08;;
22531;SDS011;11432;46.924;7.114;2023-05-07T13:00:16;1.50;;;1.05;;
22531;SDS011;11432;46.924;7.114;2023-05-07T13:02:42;1.52;;;0.90;;
22531;SDS011;11432;46.924;7.114;2023-05-07T13:05:11;2.33;;;0.85;;
22531;SDS011;11432;46.924;7.114;2023-05-07T13:07:37;0.80;;;0.65;;
22531;SDS011;11432;46.924;7.114;2023-05-07T13:10:05;1.50;;;0.80;;
22531;SDS011;11432;46.924;7.114;2023-05-07T13:12:32;2.28;;;0.70;;
22531;SDS011;11432;46.924;7.114;2023-05-07T13:14:57;1.60;;;0.77;;
22531;SDS011;11432;46.924;7.114;2023-05-07T13:17:24;2.90;;;0.90;;
22531;SDS011;11432;46.924;7.114;2023-05-07T13:19:49;1.13;;;0.77;;
22531;SDS011;11432;46.924;7.114;2023-05-07T13:22:15;2.33;;;0.75;;
22531;SDS011;11432;46.924;7.114;2023-05-07T13:24:41;1.08;;;0.80;;
22531;SDS011;11432;46.924;7.114;2023-05-07T13:27:08;0.95;;;0.70;;
22531;SDS011;11432;46.924;7.114;2023-05-07T13:29:34;1.60;;;0.85;;
22531;SDS011;11432;46.924;7.114;2023-05-07T13:31:59;1.90;;;0.70;;
22531;SDS011;11432;46.924;7.114;2023-05-07T13:34:25;0.85;;;0.70;;
22531;SDS011;11432;46.924;7.114;2023-05-07T13:36:50;0.85;;;0.50;;
22531;SDS011;11432;46.924;7.114;2023-05-07T13:39:16;0.90;;;0.50;;
22531;SDS011;11432;46.924;7.114;2023-05-07T13:41:41;0.50;;;0.40;;
22531;SDS011;11432;46.924;7.114;2023-05-07T13:44:07;2.65;;;0.50;;
22531;SDS011;11432;46.924;7.114;2023-05-07T13:46:33;1.20;;;0.40;;
22531;SDS011;11432;46.924;7.114;2023-05-07T13:48:58;0.47;;;0.47;;
22531;SDS011;11432;46.924;7.114;2023-05-07T13:51:24;0.75;;;0.50;;
22531;SDS011;11432;46.924;7.114;2023-05-07T13:53:50;1.13;;;0.52;;
22531;SDS011;11432;46.924;7.114;2023-05-07T13:56:17;1.38;;;0.60;;
22531;SDS011;11432;46.924;7.114;2023-05-07T13:58:43;0.82;;;0.40;;
22531;SDS011;11432;46.924;7.114;2023-05-07T14:01:08;1.30;;;0.30;;
22531;SDS011;11432;46.924;7.114;2023-05-07T14:03:34;1.13;;;0.50;;
22531;SDS011;11432;46.924;7.114;2023-05-07T14:06:02;1.23;;;0.60;;
22531;SDS011;11432;46.924;7.114;2023-05-07T14:08:28;1.10;;;0.40;;
22531;SDS011;11432;46.924;7.114;2023-05-07T14:10:54;0.80;;;0.40;;
22531;SDS011;11432;46.924;7.114;2023-05-07T14:13:20;0.90;;;0.43;;
22531;SDS011;11432;46.924;7.114;2023-05-07T14:15:45;0.88;;;0.32;;
22531;SDS011;11432;46.924;7.114;2023-05-07T14:18:13;0.98;;;0.35;;
22531;SDS011;11432;46.924;7.114;2023-05-07T14:20:39;4.38;;;0.57;;
22531;SDS011;11432;46.924;7.114;2023-05-07T14:23:04;1.23;;;0.40;;
22531;SDS011;11432;46.924;7.114;2023-05-07T14:25:30;0.82;;;0.63;;
22531;SDS011;11432;46.924;7.114;2023-05-07T14:27:55;0.50;;;0.40;;
22531;SDS011;11432;46.924;7.114;2023-05-07T14:30:21;1.17;;;0.40;;
22531;SDS011;11432;46.924;7.114;2023-05-07T14:32:49;1.38;;;0.50;;
22531;SDS011;11432;46.924;7.114;2023-05-07T14:35:15;0.90;;;0.50;;
22531;SDS011;11432;46.924;7.114;2023-05-07T14:37:40;1.10;;;0.40;;
22531;SDS011;11432;46.924;7.114;2023-05-07T14:40:06;0.80;;;0.40;;
22531;SDS011;11432;46.924;7.114;2023-05-07T14:42:32;0.98;;;0.60;;
22531;SDS011;11432;46.924;7.114;2023-05-07T14:44:58;1.75;;;0.80;;
22531;SDS011;11432;46.924;7.114;2023-05-07T14:47:23;1.55;;;1.10;;
22531;SDS011;11432;46.924;7.114;2023-05-07T14:49:49;1.75;;;1.05;;
22531;SDS011;11432;46.924;7.114;2023-05-07T14:52:14;3.05;;;1.20;;
22531;SDS011;11432;46.924;7.114;2023-05-07T14:54:40;1.48;;;1.10;;
22531;SDS011;11432;46.924;7.114;2023-05-07T14:57:08;3.15;;;1.17;;
22531;SDS011;11432;46.924;7.114;2023-05-07T14:59:35;4.90;;;1.58;;
22531;SDS011;11432;46.924;7.114;2023-05-07T15:02:00;2.20;;;1.20;;